^^
Saratoga-Weather Station Historical Data
Daily Summary for June 10, 2020 Units:  Both    English   Metric
Daily Weekly Monthly Yearly Custom
  High: Low: Average:
Temperature: 38.3 °F /  3.5 °C 32.2 °F /  0.1 °C 34.7 °F /  1.5 °C
Dew Point: 33.8 °F /  1 °C 30.9 °F /  -0.6 °C 32.5 °F /  0.3 °C
Humidity: 96% 81% 92%
Wind Speed: 4mph /  6.4km/h - 0.7mph /  1.2km/h
Wind Gust: 7mph /  11.3km/h - -
Wind- - East
Pressure: 29.8 in /  1009.5 hPa 29.7 in /  1005.1 hPa -
Precipitation: 0 in /  0.0 mm    
Historical Graphs
 
 
Tabular Data for June 10, 2020
Time Temperature Dew Point Pressure Wind Wind Speed Wind Gust Humidity Rainfall Rate (Hourly) solar
00:01 34.9 °F /  1.6 °C 33.6 °F /  0.9 °C 29.8in /  1009.5hPa Calm     95% 0in /  0.0mm 0 W/m2
00:06 34.9 °F /  1.6 °C 33.6 °F /  0.9 °C 29.8in /  1009.5hPa Calm     95% 0in /  0.0mm 0 W/m2
00:11 34.9 °F /  1.6 °C 33.6 °F /  0.9 °C 29.8in /  1009.5hPa Calm     95% 0in /  0.0mm 0 W/m2
00:16 34.9 °F /  1.6 °C 33.6 °F /  0.9 °C 29.8in /  1009.5hPa NNE 0.9mph /  1.4km/h 2mph /  3.2km/h 95% 0in /  0.0mm 0 W/m2
00:21 35.1 °F /  1.7 °C 33.8 °F /  1 °C 29.8in /  1009.5hPa Calm   1mph /  1.6km/h 95% 0in /  0.0mm 0 W/m2
00:26 35.1 °F /  1.7 °C 33.8 °F /  1 °C 29.8in /  1009.1hPa East 0.9mph /  1.4km/h 2mph /  3.2km/h 95% 0in /  0.0mm 0 W/m2
00:31 35.1 °F /  1.7 °C 33.8 °F /  1 °C 29.8in /  1009.1hPa SE 0.9mph /  1.4km/h 1mph /  1.6km/h 95% 0in /  0.0mm 0 W/m2
00:36 35.1 °F /  1.7 °C 33.8 °F /  1 °C 29.8in /  1009.1hPa Calm   1mph /  1.6km/h 95% 0in /  0.0mm 0 W/m2
00:41 34.9 °F /  1.6 °C 33.6 °F /  0.9 °C 29.8in /  1009.1hPa SE 0.9mph /  1.4km/h 2mph /  3.2km/h 95% 0in /  0.0mm 0 W/m2
00:46 34.9 °F /  1.6 °C 33.6 °F /  0.9 °C 29.8in /  1009.1hPa Calm     95% 0in /  0.0mm 0 W/m2
00:51 34.9 °F /  1.6 °C 33.6 °F /  0.9 °C 29.8in /  1008.8hPa SE 0.9mph /  1.4km/h 1mph /  1.6km/h 95% 0in /  0.0mm 0 W/m2
00:56 34.9 °F /  1.6 °C 33.6 °F /  0.9 °C 29.8in /  1008.8hPa SE 0.9mph /  1.4km/h 1mph /  1.6km/h 95% 0in /  0.0mm 0 W/m2
01:01 34.9 °F /  1.6 °C 33.6 °F /  0.9 °C 29.8in /  1008.8hPa Calm     95% 0in /  0.0mm 0 W/m2
01:06 34.9 °F /  1.6 °C 33.6 °F /  0.9 °C 29.8in /  1008.8hPa Calm     95% 0in /  0.0mm 0 W/m2
01:11 34.9 °F /  1.6 °C 33.6 °F /  0.9 °C 29.8in /  1008.5hPa SE 0.9mph /  1.4km/h 1mph /  1.6km/h 95% 0in /  0.0mm 0 W/m2
01:16 34.9 °F /  1.6 °C 33.6 °F /  0.9 °C 29.8in /  1008.5hPa Calm     95% 0in /  0.0mm 0 W/m2
01:21 34.9 °F /  1.6 °C 33.6 °F /  0.9 °C 29.8in /  1008.5hPa Calm     95% 0in /  0.0mm 0 W/m2
01:26 34.9 °F /  1.6 °C 33.6 °F /  0.9 °C 29.8in /  1008.5hPa Calm     95% 0in /  0.0mm 0 W/m2
01:31 34.9 °F /  1.6 °C 33.6 °F /  0.9 °C 29.8in /  1008.5hPa Calm     95% 0in /  0.0mm 0 W/m2
01:36 34.9 °F /  1.6 °C 33.6 °F /  0.9 °C 29.8in /  1008.5hPa Calm     95% 0in /  0.0mm 0 W/m2
01:41 34.7 °F /  1.5 °C 33.4 °F /  0.8 °C 29.8in /  1008.1hPa Calm   1mph /  1.6km/h 95% 0in /  0.0mm 0 W/m2
01:46 34.7 °F /  1.5 °C 33.4 °F /  0.8 °C 29.8in /  1008.1hPa Calm     95% 0in /  0.0mm 0 W/m2
01:51 34.7 °F /  1.5 °C 33.4 °F /  0.8 °C 29.8in /  1008.1hPa Calm     95% 0in /  0.0mm 0 W/m2
01:56 34.7 °F /  1.5 °C 33.4 °F /  0.8 °C 29.8in /  1008.1hPa Calm     95% 0in /  0.0mm 0 W/m2
02:01 34.5 °F /  1.4 °C 33.3 °F /  0.7 °C 29.8in /  1008.1hPa Calm   1mph /  1.6km/h 95% 0in /  0.0mm 0 W/m2
02:06 34.5 °F /  1.4 °C 33.3 °F /  0.7 °C 29.8in /  1007.8hPa Calm     95% 0in /  0.0mm 0 W/m2
02:11 34.5 °F /  1.4 °C 33.3 °F /  0.7 °C 29.8in /  1007.8hPa Calm   1mph /  1.6km/h 95% 0in /  0.0mm 0 W/m2
02:16 34.5 °F /  1.4 °C 33.3 °F /  0.7 °C 29.8in /  1007.8hPa Calm     95% 0in /  0.0mm 0 W/m2
02:21 34.5 °F /  1.4 °C 33.3 °F /  0.7 °C 29.8in /  1007.5hPa Calm     95% 0in /  0.0mm 0 W/m2
02:26 34.5 °F /  1.4 °C 33.3 °F /  0.7 °C 29.8in /  1007.5hPa Calm     95% 0in /  0.0mm 0 W/m2
02:31 34.3 °F /  1.3 °C 33.1 °F /  0.6 °C 29.8in /  1007.5hPa Calm     95% 0in /  0.0mm 0 W/m2
02:36 34.3 °F /  1.3 °C 33.1 °F /  0.6 °C 29.8in /  1007.5hPa Calm     95% 0in /  0.0mm 0 W/m2
02:41 34.3 °F /  1.3 °C 33.1 °F /  0.6 °C 29.8in /  1007.5hPa Calm     95% 0in /  0.0mm 0 W/m2
02:46 34.3 °F /  1.3 °C 33.1 °F /  0.6 °C 29.8in /  1007.5hPa Calm     95% 0in /  0.0mm 0 W/m2
02:51 34.3 °F /  1.3 °C 33.1 °F /  0.6 °C 29.8in /  1007.5hPa Calm     95% 0in /  0.0mm 0 W/m2
02:56 34.3 °F /  1.3 °C 33.1 °F /  0.6 °C 29.8in /  1007.5hPa Calm     95% 0in /  0.0mm 0 W/m2
03:01 34.3 °F /  1.3 °C 33.1 °F /  0.6 °C 29.8in /  1007.5hPa Calm     95% 0in /  0.0mm 0 W/m2
03:06 34.3 °F /  1.3 °C 33.1 °F /  0.6 °C 29.8in /  1007.5hPa Calm     95% 0in /  0.0mm 0 W/m2
03:11 34.3 °F /  1.3 °C 33.1 °F /  0.6 °C 29.8in /  1007.5hPa Calm     95% 0in /  0.0mm 0 W/m2
03:16 34.3 °F /  1.3 °C 33.1 °F /  0.6 °C 29.8in /  1007.5hPa Calm     95% 0in /  0.0mm 0 W/m2
03:21 34.2 °F /  1.2 °C 32.9 °F /  0.5 °C 29.8in /  1007.5hPa Calm     95% 0in /  0.0mm 0 W/m2
03:26 34.2 °F /  1.2 °C 32.9 °F /  0.5 °C 29.7in /  1007.1hPa Calm     95% 0in /  0.0mm 0 W/m2
03:31 34.2 °F /  1.2 °C 32.9 °F /  0.5 °C 29.7in /  1007.1hPa Calm     95% 0in /  0.0mm 0 W/m2
03:36 34 °F /  1.1 °C 32.7 °F /  0.4 °C 29.7in /  1007.1hPa Calm     95% 0in /  0.0mm 0 W/m2
03:41 34 °F /  1.1 °C 32.7 °F /  0.4 °C 29.7in /  1007.1hPa Calm     95% 0in /  0.0mm 0 W/m2
03:46 34 °F /  1.1 °C 32.7 °F /  0.4 °C 29.7in /  1007.1hPa Calm     95% 0in /  0.0mm 0 W/m2
03:51 34 °F /  1.1 °C 32.7 °F /  0.4 °C 29.7in /  1006.8hPa Calm     95% 0in /  0.0mm 0 W/m2
03:56 34 °F /  1.1 °C 32.7 °F /  0.4 °C 29.7in /  1006.8hPa Calm     95% 0in /  0.0mm 0 W/m2
04:01 34 °F /  1.1 °C 32.7 °F /  0.4 °C 29.7in /  1006.8hPa Calm     95% 0in /  0.0mm 0 W/m2
04:06 33.8 °F /  1 °C 32.5 °F /  0.3 °C 29.7in /  1006.4hPa Calm     95% 0in /  0.0mm 0 W/m2
04:11 33.8 °F /  1 °C 32.5 °F /  0.3 °C 29.7in /  1006.8hPa Calm     95% 0in /  0.0mm 0 W/m2
04:16 33.8 °F /  1 °C 32.5 °F /  0.3 °C 29.7in /  1006.4hPa Calm     95% 0in /  0.0mm 0 W/m2
04:21 33.8 °F /  1 °C 32.7 °F /  0.4 °C 29.7in /  1006.4hPa Calm     96% 0in /  0.0mm 0 W/m2
04:26 33.6 °F /  0.9 °C 32.5 °F /  0.3 °C 29.7in /  1006.4hPa Calm     96% 0in /  0.0mm 0 W/m2
04:31 33.8 °F /  1 °C 32.7 °F /  0.4 °C 29.7in /  1006.4hPa Calm     96% 0in /  0.0mm 0 W/m2
04:36 33.8 °F /  1 °C 32.7 °F /  0.4 °C 29.7in /  1006.4hPa Calm     96% 0in /  0.0mm 0 W/m2
04:41 33.8 °F /  1 °C 32.7 °F /  0.4 °C 29.7in /  1006.1hPa Calm     96% 0in /  0.0mm 0 W/m2
04:46 33.8 °F /  1 °C 32.7 °F /  0.4 °C 29.7in /  1006.1hPa Calm     96% 0in /  0.0mm 0 W/m2
04:51 33.8 °F /  1 °C 32.7 °F /  0.4 °C 29.7in /  1006.1hPa Calm     96% 0in /  0.0mm 0 W/m2
04:56 33.8 °F /  1 °C 32.7 °F /  0.4 °C 29.7in /  1006.1hPa Calm     96% 0in /  0.0mm 0 W/m2
05:01 33.8 °F /  1 °C 32.7 °F /  0.4 °C 29.7in /  1005.8hPa Calm     96% 0in /  0.0mm 0 W/m2
05:06 33.6 °F /  0.9 °C 32.5 °F /  0.3 °C 29.7in /  1005.8hPa Calm     96% 0in /  0.0mm 0 W/m2
05:11 33.6 °F /  0.9 °C 32.5 °F /  0.3 °C 29.7in /  1005.8hPa Calm     96% 0in /  0.0mm 0 W/m2
05:16 33.6 °F /  0.9 °C 32.5 °F /  0.3 °C 29.7in /  1005.8hPa Calm     96% 0in /  0.0mm 0 W/m2
05:22 33.4 °F /  0.8 °C 32.2 °F /  0.1 °C 29.7in /  1005.8hPa Calm     95% 0in /  0.0mm 0 W/m2
05:27 33.4 °F /  0.8 °C 32.2 °F /  0.1 °C 29.7in /  1005.8hPa Calm   1mph /  1.6km/h 95% 0in /  0.0mm 0 W/m2
05:32 33.4 °F /  0.8 °C 32.2 °F /  0.1 °C 29.7in /  1005.8hPa Calm     95% 0in /  0.0mm 0 W/m2
05:37 33.3 °F /  0.7 °C 32 °F /  0 °C 29.7in /  1005.8hPa ESE 0.9mph /  1.4km/h 1mph /  1.6km/h 95% 0in /  0.0mm 0 W/m2
05:42 33.3 °F /  0.7 °C 32.2 °F /  0.1 °C 29.7in /  1005.8hPa Calm   1mph /  1.6km/h 96% 0in /  0.0mm 0 W/m2
05:47 33.3 °F /  0.7 °C 32.2 °F /  0.1 °C 29.7in /  1005.8hPa Calm     96% 0in /  0.0mm 0 W/m2
05:52 33.1 °F /  0.6 °C 31.8 °F /  -0.1 °C 29.7in /  1005.8hPa Calm     95% 0in /  0.0mm 0 W/m2
05:57 32.9 °F /  0.5 °C 31.6 °F /  -0.2 °C 29.7in /  1005.8hPa Calm     95% 0in /  0.0mm 0 W/m2
06:02 32.7 °F /  0.4 °C 31.5 °F /  -0.3 °C 29.7in /  1005.8hPa Calm     95% 0in /  0.0mm 0 W/m2
06:07 32.4 °F /  0.2 °C 31.1 °F /  -0.5 °C 29.7in /  1005.8hPa Calm     95% 0in /  0.0mm 0 W/m2
06:12 32.4 °F /  0.2 °C 31.1 °F /  -0.5 °C 29.7in /  1005.8hPa Calm     95% 0in /  0.0mm 0 W/m2
06:17 32.2 °F /  0.1 °C 30.9 °F /  -0.6 °C 29.7in /  1005.8hPa Calm     95% 0in /  0.0mm 0 W/m2
06:22 32.2 °F /  0.1 °C 30.9 °F /  -0.6 °C 29.7in /  1005.8hPa Calm     95% 0in /  0.0mm 0 W/m2
06:27 32.2 °F /  0.1 °C 30.9 °F /  -0.6 °C 29.7in /  1005.8hPa Calm     95% 0in /  0.0mm 0 W/m2
06:32 32.2 °F /  0.1 °C 31.1 °F /  -0.5 °C 29.7in /  1005.8hPa Calm     96% 0in /  0.0mm 0 W/m2
06:37 32.2 °F /  0.1 °C 31.1 °F /  -0.5 °C 29.7in /  1005.8hPa Calm     96% 0in /  0.0mm 0 W/m2
06:42 32.2 °F /  0.1 °C 31.1 °F /  -0.5 °C 29.7in /  1005.8hPa Calm     96% 0in /  0.0mm 0 W/m2
06:47 32.2 °F /  0.1 °C 31.1 °F /  -0.5 °C 29.7in /  1005.8hPa Calm     96% 0in /  0.0mm 0 W/m2
06:52 32.2 °F /  0.1 °C 31.1 °F /  -0.5 °C 29.7in /  1005.8hPa Calm   1mph /  1.6km/h 96% 0in /  0.0mm 0 W/m2
06:57 32.4 °F /  0.2 °C 31.3 °F /  -0.4 °C 29.7in /  1005.8hPa Calm     96% 0in /  0.0mm 0 W/m2
07:02 32.4 °F /  0.2 °C 31.3 °F /  -0.4 °C 29.7in /  1005.8hPa ESE 2mph /  3.2km/h 2mph /  3.2km/h 96% 0in /  0.0mm 0 W/m2
07:07 32.4 °F /  0.2 °C 31.3 °F /  -0.4 °C 29.7in /  1006.1hPa ESE 0.9mph /  1.4km/h 1mph /  1.6km/h 96% 0in /  0.0mm 0 W/m2
07:12 32.5 °F /  0.3 °C 31.5 °F /  -0.3 °C 29.7in /  1006.1hPa ESE 0.9mph /  1.4km/h 2mph /  3.2km/h 96% 0in /  0.0mm 0 W/m2
07:17 32.5 °F /  0.3 °C 31.5 °F /  -0.3 °C 29.7in /  1006.1hPa ESE 0.9mph /  1.4km/h 1mph /  1.6km/h 96% 0in /  0.0mm 0 W/m2
07:22 32.5 °F /  0.3 °C 31.5 °F /  -0.3 °C 29.7in /  1006.1hPa ESE 0.9mph /  1.4km/h 2mph /  3.2km/h 96% 0in /  0.0mm 0 W/m2
07:27 32.5 °F /  0.3 °C 31.5 °F /  -0.3 °C 29.7in /  1006.1hPa Calm   2mph /  3.2km/h 96% 0in /  0.0mm 0 W/m2
07:32 32.4 °F /  0.2 °C 31.3 °F /  -0.4 °C 29.7in /  1006.1hPa Calm   1mph /  1.6km/h 96% 0in /  0.0mm 0 W/m2
07:37 32.5 °F /  0.3 °C 31.5 °F /  -0.3 °C 29.7in /  1005.8hPa Calm     96% 0in /  0.0mm 0 W/m2
07:42 32.5 °F /  0.3 °C 31.5 °F /  -0.3 °C 29.7in /  1006.1hPa Calm     96% 0in /  0.0mm 0 W/m2
07:47 32.5 °F /  0.3 °C 31.5 °F /  -0.3 °C 29.7in /  1005.8hPa Calm     96% 0in /  0.0mm 0 W/m2
07:52 32.5 °F /  0.3 °C 31.5 °F /  -0.3 °C 29.7in /  1006.1hPa Calm   1mph /  1.6km/h 96% 0in /  0.0mm 0 W/m2
07:57 32.5 °F /  0.3 °C 31.5 °F /  -0.3 °C 29.7in /  1005.8hPa Calm   2mph /  3.2km/h 96% 0in /  0.0mm 0 W/m2
08:02 32.5 °F /  0.3 °C 31.5 °F /  -0.3 °C 29.7in /  1006.1hPa ESE 0.9mph /  1.4km/h 2mph /  3.2km/h 96% 0in /  0.0mm 0 W/m2
08:07 32.5 °F /  0.3 °C 31.5 °F /  -0.3 °C 29.7in /  1006.1hPa Calm     96% 0in /  0.0mm 0 W/m2
08:12 32.5 °F /  0.3 °C 31.5 °F /  -0.3 °C 29.7in /  1006.1hPa ESE 0.9mph /  1.4km/h 2mph /  3.2km/h 96% 0in /  0.0mm 5 W/m2
08:17 32.7 °F /  0.4 °C 31.6 °F /  -0.2 °C 29.7in /  1006.1hPa Calm   1mph /  1.6km/h 96% 0in /  0.0mm 0 W/m2
08:22 32.7 °F /  0.4 °C 31.6 °F /  -0.2 °C 29.7in /  1006.1hPa ESE 0.9mph /  1.4km/h 2mph /  3.2km/h 96% 0in /  0.0mm 5 W/m2
08:27 32.7 °F /  0.4 °C 31.6 °F /  -0.2 °C 29.7in /  1006.1hPa Calm   2mph /  3.2km/h 96% 0in /  0.0mm 5 W/m2
08:32 32.7 °F /  0.4 °C 31.6 °F /  -0.2 °C 29.7in /  1006.1hPa Calm     96% 0in /  0.0mm 7 W/m2
08:37 32.7 °F /  0.4 °C 31.6 °F /  -0.2 °C 29.7in /  1006.1hPa ESE 2mph /  3.2km/h 2mph /  3.2km/h 96% 0in /  0.0mm 11 W/m2
08:42 32.7 °F /  0.4 °C 31.6 °F /  -0.2 °C 29.7in /  1006.1hPa Calm   1mph /  1.6km/h 96% 0in /  0.0mm 12 W/m2
08:47 32.7 °F /  0.4 °C 31.6 °F /  -0.2 °C 29.7in /  1006.1hPa Calm   3mph /  4.8km/h 96% 0in /  0.0mm 18 W/m2
08:52 32.9 °F /  0.5 °C 31.8 °F /  -0.1 °C 29.7in /  1006.1hPa ESE 0.9mph /  1.4km/h 1mph /  1.6km/h 96% 0in /  0.0mm 23 W/m2
08:57 32.9 °F /  0.5 °C 31.8 °F /  -0.1 °C 29.7in /  1006.1hPa ESE 0.9mph /  1.4km/h 3mph /  4.8km/h 96% 0in /  0.0mm 30 W/m2
09:02 32.9 °F /  0.5 °C 31.8 °F /  -0.1 °C 29.7in /  1006.1hPa ESE 0.9mph /  1.4km/h 3mph /  4.8km/h 96% 0in /  0.0mm 39 W/m2
09:07 33.1 °F /  0.6 °C 31.8 °F /  -0.1 °C 29.7in /  1006.1hPa Calm   3mph /  4.8km/h 95% 0in /  0.0mm 46 W/m2
09:12 33.1 °F /  0.6 °C 32 °F /  0 °C 29.7in /  1006.1hPa ESE 0.9mph /  1.4km/h 2mph /  3.2km/h 96% 0in /  0.0mm 54 W/m2
09:17 33.1 °F /  0.6 °C 32 °F /  0 °C 29.7in /  1006.1hPa Calm   2mph /  3.2km/h 96% 0in /  0.0mm 62 W/m2
09:22 33.3 °F /  0.7 °C 32.2 °F /  0.1 °C 29.7in /  1006.1hPa Calm   2mph /  3.2km/h 96% 0in /  0.0mm 58 W/m2
09:27 33.3 °F /  0.7 °C 32 °F /  0 °C 29.7in /  1006.1hPa Calm   1mph /  1.6km/h 95% 0in /  0.0mm 62 W/m2
09:32 33.4 °F /  0.8 °C 32.2 °F /  0.1 °C 29.7in /  1006.1hPa Calm   1mph /  1.6km/h 95% 0in /  0.0mm 95 W/m2
09:37 33.4 °F /  0.8 °C 32.2 °F /  0.1 °C 29.7in /  1006.1hPa NE 2.9mph /  4.7km/h 4mph /  6.4km/h 95% 0in /  0.0mm 91 W/m2
09:42 33.6 °F /  0.9 °C 32.4 °F /  0.2 °C 29.7in /  1006.1hPa ENE 0.9mph /  1.4km/h 2mph /  3.2km/h 95% 0in /  0.0mm 90 W/m2
09:47 33.6 °F /  0.9 °C 32.4 °F /  0.2 °C 29.7in /  1006.1hPa Calm     95% 0in /  0.0mm 107 W/m2
09:52 33.8 °F /  1 °C 32.5 °F /  0.3 °C 29.7in /  1006.1hPa ENE 0.9mph /  1.4km/h 2mph /  3.2km/h 95% 0in /  0.0mm 114 W/m2
09:57 34 °F /  1.1 °C 32.4 °F /  0.2 °C 29.7in /  1006.1hPa Calm   2mph /  3.2km/h 94% 0in /  0.0mm 102 W/m2
10:03 34.2 °F /  1.2 °C 32.5 °F /  0.3 °C 29.7in /  1006.1hPa NE 2mph /  3.2km/h 3mph /  4.8km/h 94% 0in /  0.0mm 105 W/m2
10:08 34.3 °F /  1.3 °C 32.7 °F /  0.4 °C 29.7in /  1006.4hPa East 2mph /  3.2km/h 3mph /  4.8km/h 94% 0in /  0.0mm 105 W/m2
10:13 34.3 °F /  1.3 °C 32.7 °F /  0.4 °C 29.7in /  1006.4hPa ENE 2mph /  3.2km/h 2mph /  3.2km/h 94% 0in /  0.0mm 86 W/m2
10:18 34.3 °F /  1.3 °C 32.5 °F /  0.3 °C 29.7in /  1006.4hPa East 0.9mph /  1.4km/h 2mph /  3.2km/h 93% 0in /  0.0mm 84 W/m2
10:23 34.5 °F /  1.4 °C 32.7 °F /  0.4 °C 29.7in /  1006.4hPa Calm     93% 0in /  0.0mm 90 W/m2
10:28 34.5 °F /  1.4 °C 32.7 °F /  0.4 °C 29.7in /  1006.4hPa ENE 0.9mph /  1.4km/h 3mph /  4.8km/h 93% 0in /  0.0mm 93 W/m2
10:33 34.5 °F /  1.4 °C 32.4 °F /  0.2 °C 29.7in /  1006.4hPa NE 2mph /  3.2km/h 4mph /  6.4km/h 92% 0in /  0.0mm 98 W/m2
10:38 34.5 °F /  1.4 °C 32.4 °F /  0.2 °C 29.7in /  1006.1hPa Calm   2mph /  3.2km/h 92% 0in /  0.0mm 105 W/m2
10:43 34.9 °F /  1.6 °C 32.7 °F /  0.4 °C 29.7in /  1006.1hPa NNE 2mph /  3.2km/h 4mph /  6.4km/h 92% 0in /  0.0mm 114 W/m2
10:48 35.1 °F /  1.7 °C 32.7 °F /  0.4 °C 29.7in /  1006.1hPa ENE 2mph /  3.2km/h 4mph /  6.4km/h 91% 0in /  0.0mm 116 W/m2
10:53 35.2 °F /  1.8 °C 32.9 °F /  0.5 °C 29.7in /  1006.4hPa Calm   2mph /  3.2km/h 91% 0in /  0.0mm 123 W/m2
10:58 35.4 °F /  1.9 °C 33.1 °F /  0.6 °C 29.7in /  1006.4hPa Calm   4mph /  6.4km/h 91% 0in /  0.0mm 123 W/m2
11:03 35.4 °F /  1.9 °C 32.7 °F /  0.4 °C 29.7in /  1006.4hPa East 2mph /  3.2km/h 3mph /  4.8km/h 90% 0in /  0.0mm 132 W/m2
11:08 35.6 °F /  2 °C 32.7 °F /  0.4 °C 29.7in /  1006.1hPa NE 2.9mph /  4.7km/h 4mph /  6.4km/h 89% 0in /  0.0mm 132 W/m2
11:13 35.8 °F /  2.1 °C 32.9 °F /  0.5 °C 29.7in /  1006.1hPa ENE 2mph /  3.2km/h 2mph /  3.2km/h 89% 0in /  0.0mm 135 W/m2
11:18 36 °F /  2.2 °C 33.1 °F /  0.6 °C 29.7in /  1006.1hPa ESE 2mph /  3.2km/h 4mph /  6.4km/h 89% 0in /  0.0mm 134 W/m2
11:23 36.1 °F /  2.3 °C 33.3 °F /  0.7 °C 29.7in /  1006.1hPa ESE 0.9mph /  1.4km/h 3mph /  4.8km/h 89% 0in /  0.0mm 141 W/m2
11:28 36.1 °F /  2.3 °C 32.9 °F /  0.5 °C 29.7in /  1006.1hPa Calm   4mph /  6.4km/h 88% 0in /  0.0mm 148 W/m2
11:33 36.3 °F /  2.4 °C 33.1 °F /  0.6 °C 29.7in /  1006.1hPa Calm   4mph /  6.4km/h 88% 0in /  0.0mm 156 W/m2
11:38 36.7 °F /  2.6 °C 33.4 °F /  0.8 °C 29.7in /  1006.1hPa ENE 2mph /  3.2km/h 2mph /  3.2km/h 88% 0in /  0.0mm 156 W/m2
11:43 37 °F /  2.8 °C 33.6 °F /  0.9 °C 29.7in /  1006.1hPa Calm   2mph /  3.2km/h 87% 0in /  0.0mm 151 W/m2
11:48 37.2 °F /  2.9 °C 33.8 °F /  1 °C 29.7in /  1006.1hPa East 0.9mph /  1.4km/h 2mph /  3.2km/h 87% 0in /  0.0mm 148 W/m2
11:53 37.6 °F /  3.1 °C 33.8 °F /  1 °C 29.7in /  1006.1hPa NE 0.9mph /  1.4km/h 4mph /  6.4km/h 86% 0in /  0.0mm 146 W/m2
11:58 37.6 °F /  3.1 °C 33.4 °F /  0.8 °C 29.7in /  1006.1hPa ESE 2.9mph /  4.7km/h 6mph /  9.7km/h 85% 0in /  0.0mm 139 W/m2
12:03 37.6 °F /  3.1 °C 33.3 °F /  0.7 °C 29.7in /  1006.1hPa SE 0.9mph /  1.4km/h 5mph /  8km/h 84% 0in /  0.0mm 135 W/m2
12:08 37.6 °F /  3.1 °C 33.3 °F /  0.7 °C 29.7in /  1005.8hPa East 2mph /  3.2km/h 6mph /  9.7km/h 84% 0in /  0.0mm 128 W/m2
12:13 37.6 °F /  3.1 °C 33.3 °F /  0.7 °C 29.7in /  1005.8hPa East 4mph /  6.4km/h 5mph /  8km/h 84% 0in /  0.0mm 137 W/m2
12:18 37.6 °F /  3.1 °C 32.9 °F /  0.5 °C 29.7in /  1005.8hPa ESE 2mph /  3.2km/h 2mph /  3.2km/h 83% 0in /  0.0mm 156 W/m2
12:23 37.8 °F /  3.2 °C 33.1 °F /  0.6 °C 29.7in /  1005.8hPa Calm   6mph /  9.7km/h 83% 0in /  0.0mm 186 W/m2
12:28 37.9 °F /  3.3 °C 33.6 °F /  0.9 °C 29.7in /  1005.8hPa East 2.9mph /  4.7km/h 3mph /  4.8km/h 84% 0in /  0.0mm 176 W/m2
12:33 37.9 °F /  3.3 °C 33.3 °F /  0.7 °C 29.7in /  1005.8hPa Calm   3mph /  4.8km/h 83% 0in /  0.0mm 155 W/m2
12:38 37.9 °F /  3.3 °C 33.3 °F /  0.7 °C 29.7in /  1005.8hPa East 2mph /  3.2km/h 3mph /  4.8km/h 83% 0in /  0.0mm 146 W/m2
12:43 37.9 °F /  3.3 °C 32.9 °F /  0.5 °C 29.7in /  1005.8hPa SSE 4mph /  6.4km/h 6mph /  9.7km/h 82% 0in /  0.0mm 142 W/m2
12:48 37.9 °F /  3.3 °C 33.3 °F /  0.7 °C 29.7in /  1005.8hPa ENE 0.9mph /  1.4km/h 5mph /  8km/h 83% 0in /  0.0mm 142 W/m2
12:53 37.9 °F /  3.3 °C 33.3 °F /  0.7 °C 29.7in /  1005.8hPa ENE 0.9mph /  1.4km/h 6mph /  9.7km/h 83% 0in /  0.0mm 142 W/m2
12:58 38.1 °F /  3.4 °C 33.4 °F /  0.8 °C 29.7in /  1005.8hPa ESE 4mph /  6.4km/h 4mph /  6.4km/h 83% 0in /  0.0mm 146 W/m2
13:03 38.1 °F /  3.4 °C 33.1 °F /  0.6 °C 29.7in /  1005.8hPa Calm   4mph /  6.4km/h 82% 0in /  0.0mm 130 W/m2
13:08 38.3 °F /  3.5 °C 33.3 °F /  0.7 °C 29.7in /  1005.8hPa East 2.9mph /  4.7km/h 6mph /  9.7km/h 82% 0in /  0.0mm 148 W/m2
13:13 38.3 °F /  3.5 °C 33.3 °F /  0.7 °C 29.7in /  1005.8hPa East 2.9mph /  4.7km/h 4mph /  6.4km/h 82% 0in /  0.0mm 142 W/m2
13:18 38.3 °F /  3.5 °C 33.3 °F /  0.7 °C 29.7in /  1005.8hPa ESE 0.9mph /  1.4km/h 4mph /  6.4km/h 82% 0in /  0.0mm 148 W/m2
13:23 38.3 °F /  3.5 °C 33.3 °F /  0.7 °C 29.7in /  1005.8hPa East 2mph /  3.2km/h 7mph /  11.3km/h 82% 0in /  0.0mm 151 W/m2
13:28 38.3 °F /  3.5 °C 33.3 °F /  0.7 °C 29.7in /  1005.4hPa ESE 2.9mph /  4.7km/h 5mph /  8km/h 82% 0in /  0.0mm 144 W/m2
13:33 38.1 °F /  3.4 °C 32.7 °F /  0.4 °C 29.7in /  1005.4hPa East 0.9mph /  1.4km/h 7mph /  11.3km/h 81% 0in /  0.0mm 128 W/m2
13:38 37.9 °F /  3.3 °C 32.7 °F /  0.4 °C 29.7in /  1005.4hPa ESE 2.9mph /  4.7km/h 3mph /  4.8km/h 81% 0in /  0.0mm 116 W/m2
13:43 37.9 °F /  3.3 °C 32.9 °F /  0.5 °C 29.7in /  1005.4hPa ENE 2.9mph /  4.7km/h 5mph /  8km/h 82% 0in /  0.0mm 134 W/m2
13:48 37.9 °F /  3.3 °C 32.9 °F /  0.5 °C 29.7in /  1005.4hPa East 2.9mph /  4.7km/h 4mph /  6.4km/h 82% 0in /  0.0mm 148 W/m2
13:53 38.1 °F /  3.4 °C 33.1 °F /  0.6 °C 29.7in /  1005.4hPa ENE 2.9mph /  4.7km/h 7mph /  11.3km/h 82% 0in /  0.0mm 132 W/m2
13:58 38.1 °F /  3.4 °C 32.7 °F /  0.4 °C 29.7in /  1005.4hPa East 4mph /  6.4km/h 5mph /  8km/h 81% 0in /  0.0mm 137 W/m2
14:03 37.9 °F /  3.3 °C 32.7 °F /  0.4 °C 29.7in /  1005.1hPa East 2.9mph /  4.7km/h 4mph /  6.4km/h 81% 0in /  0.0mm 130 W/m2
14:08 37.9 °F /  3.3 °C 32.7 °F /  0.4 °C 29.7in /  1005.1hPa East 2mph /  3.2km/h 5mph /  8km/h 81% 0in /  0.0mm 130 W/m2
14:13 37.9 °F /  3.3 °C 32.7 °F /  0.4 °C 29.7in /  1005.4hPa ENE 2mph /  3.2km/h 5mph /  8km/h 81% 0in /  0.0mm 120 W/m2
14:18 37.9 °F /  3.3 °C 32.7 °F /  0.4 °C 29.7in /  1005.1hPa East 2mph /  3.2km/h 3mph /  4.8km/h 81% 0in /  0.0mm 121 W/m2
14:23 37.9 °F /  3.3 °C 32.7 °F /  0.4 °C 29.7in /  1005.1hPa East 2mph /  3.2km/h 3mph /  4.8km/h 81% 0in /  0.0mm 120 W/m2
14:28 37.9 °F /  3.3 °C 32.7 °F /  0.4 °C 29.7in /  1005.1hPa ENE 4mph /  6.4km/h 4mph /  6.4km/h 81% 0in /  0.0mm 91 W/m2
14:33 37.8 °F /  3.2 °C 32.5 °F /  0.3 °C 29.7in /  1005.1hPa ESE 2mph /  3.2km/h 4mph /  6.4km/h 81% 0in /  0.0mm 74 W/m2
14:38 37.8 °F /  3.2 °C 32.7 °F /  0.4 °C 29.7in /  1005.1hPa ENE 4mph /  6.4km/h 6mph /  9.7km/h 82% 0in /  0.0mm 62 W/m2
14:43 37.4 °F /  3 °C 32.4 °F /  0.2 °C 29.7in /  1005.1hPa ESE 2mph /  3.2km/h 5mph /  8km/h 82% 0in /  0.0mm 58 W/m2
14:48 37 °F /  2.8 °C 32 °F /  0 °C 29.7in /  1005.1hPa ENE 2.9mph /  4.7km/h 3mph /  4.8km/h 82% 0in /  0.0mm 63 W/m2
14:53 37 °F /  2.8 °C 32 °F /  0 °C 29.7in /  1005.1hPa ESE 0.9mph /  1.4km/h 4mph /  6.4km/h 82% 0in /  0.0mm 54 W/m2
Juneau County Weather
Compliments of Weather Underground - 2 mb